Time;durP1;ratioP1;P1;durP2;ratioP2;P2;SDS_P1;SDS_P2;PMS_P1;PMS_P2;Temp;Humidity;BMP_temperature;BMP_pressure;BME280_temperature;BME280_humidity;BME280_pressure;Samples;Min_cycle;Max_cycle;Signal;HPM_P1;HPM_P2
2022/06/10 00:01:03;;;;;;;9.38;3.10;;;;;;;21.54;47.09;99346.08;1758018;80;21522;-69
2022/06/10 00:03:30;;;;;;;3.52;3.22;;;;;;;21.48;47.59;99346.66;1752906;80;21550;-68
2022/06/10 00:05:59;;;;;;;4.65;2.80;;;;;;;21.46;47.58;99344.63;1751459;80;21462;-69
2022/06/10 00:08:29;;;;;;;4.33;2.80;;;;;;;21.44;47.83;99345.23;1753263;80;21569;-67
2022/06/10 00:10:56;;;;;;;5.03;2.98;;;;;;;21.45;47.37;99346.94;1716543;82;21530;-68
2022/06/10 00:13:27;;;;;;;4.15;2.72;;;;;;;21.41;47.31;99340.99;1762600;80;21423;-67
2022/06/10 00:15:56;;;;;;;4.67;2.85;;;;;;;21.36;47.19;99337.42;1757963;80;21546;-67
2022/06/10 00:18:26;;;;;;;3.58;2.72;;;;;;;21.32;47.74;99340.03;1766840;80;21502;-67
2022/06/10 00:20:54;;;;;;;6.97;3.02;;;;;;;21.30;47.75;99343.81;1750942;80;21417;-67
2022/06/10 00:23:20;;;;;;;3.08;2.77;;;;;;;21.24;47.71;99347.06;1758628;80;22197;-67
2022/06/10 00:25:47;;;;;;;3.27;2.62;;;;;;;21.23;47.82;99356.92;1760155;80;21503;-67
2022/06/10 00:28:14;;;;;;;4.08;3.33;;;;;;;21.19;47.87;99351.01;1762405;79;21558;-67
2022/06/10 00:30:41;;;;;;;3.62;2.70;;;;;;;21.15;47.92;99352.28;1747867;79;21431;-67
2022/06/10 00:33:08;;;;;;;3.08;2.60;;;;;;;21.11;47.99;99355.36;1723978;81;21474;-67
2022/06/10 00:35:35;;;;;;;3.22;2.87;;;;;;;21.08;48.11;99352.95;1751508;80;21854;-67
2022/06/10 00:38:02;;;;;;;8.50;3.15;;;;;;;21.01;48.04;99350.02;1762428;80;21431;-67
2022/06/10 00:40:34;;;;;;;4.65;3.05;;;;;;;21.00;48.13;99342.97;1721975;82;21582;-67
2022/06/10 00:43:01;;;;;;;4.12;3.45;;;;;;;20.94;48.50;99349.70;1762091;80;21510;-67
2022/06/10 00:46:17;;;;;;;5.67;3.40;;;;;;;20.87;48.62;99340.59;1767975;80;20977;-67
2022/06/10 00:49:05;;;;;;;4.50;2.83;;;;;;;20.84;48.90;99350.20;1751142;80;21976;-67
2022/06/10 00:51:41;;;;;;;4.62;2.95;;;;;;;20.79;48.95;99355.98;1706340;82;20963;-66
2022/06/10 00:54:25;;;;;;;4.10;2.70;;;;;;;20.73;49.16;99357.00;1734635;80;21498;-66
2022/06/10 00:57:19;;;;;;;3.77;3.22;;;;;;;20.69;49.41;99355.09;1765141;80;21479;-67
2022/06/10 00:59:59;;;;;;;3.33;3.00;;;;;;;20.66;49.34;99357.20;1750226;80;21678;-67
2022/06/10 01:02:30;;;;;;;4.15;2.77;;;;;;;20.69;49.58;99361.77;1758078;80;22004;-67
2022/06/10 01:04:58;;;;;;;4.67;3.05;;;;;;;20.65;49.46;99355.52;1727666;82;20994;-67
2022/06/10 01:07:35;;;;;;;3.47;3.00;;;;;;;20.63;49.67;99356.98;1750460;80;21833;-66
2022/06/10 01:10:04;;;;;;;3.90;2.80;;;;;;;20.61;49.78;99355.78;1751386;80;21423;-67
2022/06/10 01:13:22;;;;;;;4.58;2.58;;;;;;;20.56;50.00;99365.16;1750292;80;20950;-67
2022/06/10 01:16:04;;;;;;;3.80;3.20;;;;;;;20.52;50.13;99365.91;1752615;80;21820;-67
2022/06/10 01:18:46;;;;;;;3.35;3.00;;;;;;;20.45;50.09;99363.42;1742853;80;21400;-68
2022/06/10 01:21:41;;;;;;;3.92;2.98;;;;;;;20.40;50.28;99369.69;1711825;82;21557;-67
2022/06/10 01:24:25;;;;;;;4.75;3.00;;;;;;;20.40;50.37;99369.19;1758953;80;21491;-67
2022/06/10 01:30:40;;;;;;;4.08;2.83;;;;;;;20.31;50.75;99371.83;1751135;80;21644;-67
2022/06/10 01:33:21;;;;;;;6.60;3.17;;;;;;;20.32;50.68;99373.50;1750395;80;20990;-67
2022/06/10 01:36:07;;;;;;;6.30;3.77;;;;;;;20.30;50.84;99373.63;1750682;80;21592;-67
2022/06/10 01:38:38;;;;;;;;;;;;;;;20.27;50.79;99376.59;1750687;80;21420;-67
2022/06/10 01:41:38;;;;;;;5.33;3.15;;;;;;;20.22;51.51;99380.98;1751892;80;20456;-67
2022/06/10 01:44:29;;;;;;;4.75;3.42;;;;;;;20.18;51.13;99377.39;1754370;80;22256;-68
2022/06/10 01:47:09;;;;;;;3.87;3.45;;;;;;;20.13;51.23;99375.10;1757541;80;21404;-68
2022/06/10 01:49:56;;;;;;;4.42;3.30;;;;;;;20.13;51.62;99376.44;1751568;80;21534;-68
2022/06/10 01:52:38;;;;;;;;;;;;;;;20.18;51.95;99374.72;1723730;82;21558;-67
2022/06/10 01:55:35;;;;;;;3.37;3.08;;;;;;;20.19;52.31;99374.59;1705258;81;20459;-67
2022/06/10 01:58:22;;;;;;;4.60;3.62;;;;;;;20.14;51.86;99378.64;1671105;85;21835;-67
2022/06/10 02:00:55;;;;;;;3.60;3.30;;;;;;;20.03;51.99;99387.07;1743821;80;21464;-67
2022/06/10 02:03:37;;;;;;;6.78;4.50;;;;;;;20.00;52.38;99391.82;1749747;80;21061;-67
2022/06/10 02:06:17;;;;;;;6.10;3.30;;;;;;;19.96;52.56;99395.73;1750806;80;21443;-67
2022/06/10 02:09:01;;;;;;;3.90;3.50;;;;;;;19.98;52.39;99395.11;1751796;80;21538;-67
2022/06/10 02:11:28;;;;;;;6.92;2.95;;;;;;;19.97;52.21;99394.27;1758868;80;21942;-67
2022/06/10 02:14:07;;;;;;;4.20;3.08;;;;;;;19.94;52.00;99403.03;1741930;80;21538;-67
2022/06/10 02:16:38;;;;;;;3.25;2.95;;;;;;;19.87;51.99;99403.19;1749388;80;20995;-67
2022/06/10 02:19:13;;;;;;;4.60;2.87;;;;;;;19.82;52.17;99401.77;1750097;80;21436;-67
2022/06/10 02:21:55;;;;;;;5.95;3.37;;;;;;;19.73;52.45;99403.05;1759580;80;21510;-68
2022/06/10 02:24:40;;;;;;;3.42;2.92;;;;;;;19.70;52.49;99408.09;1753084;80;21792;-67
2022/06/10 02:27:16;;;;;;;7.20;3.10;;;;;;;19.65;52.71;99413.83;1756244;80;21534;-67
2022/06/10 02:29:51;;;;;;;6.75;3.22;;;;;;;19.64;53.52;99408.13;1756399;80;20978;-66
2022/06/10 02:32:18;;;;;;;6.03;3.45;;;;;;;19.69;53.54;99404.25;1755922;80;21557;-66
2022/06/10 02:34:45;;;;;;;3.52;3.20;;;;;;;19.75;53.61;99399.75;1758197;80;21423;-67
2022/06/10 02:37:42;;;;;;;6.85;3.40;;;;;;;19.81;53.45;99398.72;1754015;80;21917;-66
2022/06/10 02:40:32;;;;;;;6.50;3.10;;;;;;;19.81;53.43;99400.55;1749370;80;21660;-67
2022/06/10 02:43:27;;;;;;;9.60;3.62;;;;;;;19.77;53.71;99389.30;1756379;80;21493;-67
2022/06/10 02:46:15;;;;;;;6.53;3.80;;;;;;;19.69;53.92;99396.25;1751897;80;20959;-67
2022/06/10 02:48:54;;;;;;;14.65;4.00;;;;;;;19.67;54.54;99398.20;1749516;80;20947;-67
2022/06/10 02:51:21;;;;;;;6.47;3.58;;;;;;;19.67;55.00;99400.38;1762340;80;21586;-67
2022/06/10 02:53:47;;;;;;;7.87;3.87;;;;;;;19.74;55.29;99398.05;1717411;80;21507;-66
2022/06/10 02:56:19;;;;;;;5.92;3.45;;;;;;;19.87;55.38;99400.52;1753351;80;21452;-68
2022/06/10 03:01:40;;;;;;;6.42;3.67;;;;;;;20.03;55.48;99408.41;1749292;80;21680;-67
2022/06/10 03:04:39;;;;;;;3.42;3.12;;;;;;;20.11;55.42;99406.91;1714879;81;21876;-68
2022/06/10 03:07:29;;;;;;;4.72;3.37;;;;;;;20.16;55.49;99411.38;1754057;80;21502;-67
2022/06/10 03:10:25;;;;;;;5.97;3.65;;;;;;;20.20;55.70;99417.64;1745696;80;21562;-67
2022/06/10 03:13:12;;;;;;;3.90;3.35;;;;;;;20.28;55.53;99422.80;1750145;80;21021;-68
2022/06/10 03:16:14;;;;;;;3.70;3.02;;;;;;;20.34;55.68;99416.92;1741681;80;21486;-68
2022/06/10 03:19:04;;;;;;;4.20;3.47;;;;;;;20.47;56.25;99422.05;1741510;80;21933;-67
2022/06/10 03:21:54;;;;;;;6.47;3.20;;;;;;;20.65;56.45;99420.46;1754685;80;21539;-67
2022/06/10 03:24:50;;;;;;;6.90;3.20;;;;;;;20.75;56.08;99418.66;1742666;80;21546;-68
2022/06/10 03:27:28;;;;;;;4.85;3.33;;;;;;;20.86;55.73;99414.20;1752474;80;21523;-69
2022/06/10 03:30:14;;;;;;;5.37;3.55;;;;;;;20.93;55.82;99421.52;1749437;80;21436;-69
2022/06/10 03:32:54;;;;;;;5.12;3.65;;;;;;;20.99;55.38;99418.30;1750415;80;22284;-68
2022/06/10 03:35:29;;;;;;;5.00;3.92;;;;;;;21.09;55.13;99417.47;1741476;80;21644;-68
2022/06/10 03:37:56;;;;;;;6.28;3.70;;;;;;;21.15;55.06;99416.44;1713092;82;21967;-68
2022/06/10 03:40:26;;;;;;;6.10;3.60;;;;;;;21.23;55.16;99418.41;1683933;82;21571;-68
2022/06/10 03:42:56;;;;;;;3.65;3.22;;;;;;;21.30;55.09;99409.32;1687945;83;21440;-68
2022/06/10 03:45:26;;;;;;;4.70;3.40;;;;;;;21.48;54.58;99407.67;1713180;81;21818;-67
2022/06/10 03:47:53;;;;;;;7.05;3.25;;;;;;;21.72;53.62;99408.58;1703313;81;21523;-67
2022/06/10 03:50:24;;;;;;;4.40;3.30;;;;;;;21.72;53.62;99408.58;1699376;82;21499;-67
2022/06/10 03:52:50;;;;;;;6.50;3.15;;;;;;;21.83;53.07;99417.41;1715278;82;21457;-66
2022/06/10 03:55:19;;;;;;;4.42;3.42;;;;;;;21.90;52.73;99415.86;1706391;81;21070;-66
2022/06/10 03:57:46;;;;;;;5.45;3.62;;;;;;;21.93;52.36;99415.08;1689505;84;24363;-68
2022/06/10 04:00:21;;;;;;;5.55;3.10;;;;;;;22.00;52.27;99413.16;1751537;80;28559;-69
2022/06/10 04:02:48;;;;;;;4.00;3.08;;;;;;;22.03;52.26;99414.22;1747160;80;21531;-68
2022/06/10 04:05:15;;;;;;;3.85;3.25;;;;;;;22.10;52.04;99409.48;1721325;81;21588;-68
2022/06/10 04:07:42;;;;;;;6.60;3.67;;;;;;;22.19;51.89;99413.59;1739154;80;21423;-67
2022/06/10 04:10:16;;;;;;;5.45;3.30;;;;;;;22.24;51.82;99414.02;1750716;80;22176;-69
2022/06/10 04:12:42;;;;;;;4.97;3.05;;;;;;;22.32;51.48;99422.18;1755969;80;21416;-68
2022/06/10 04:15:10;;;;;;;6.85;3.00;;;;;;;22.37;50.91;99421.25;1752187;80;25767;-69
2022/06/10 04:17:37;;;;;;;6.40;3.27;;;;;;;22.45;50.73;99417.36;1753594;79;21559;-68
2022/06/10 04:20:05;;;;;;;6.50;3.70;;;;;;;22.50;50.84;99426.28;1748253;80;21488;-69
2022/06/10 04:22:32;;;;;;;7.35;2.95;;;;;;;22.62;50.51;99425.59;1749126;80;21964;-67
2022/06/10 04:24:58;;;;;;;7.80;2.98;;;;;;;22.67;50.59;99424.16;1741166;80;21475;-69
2022/06/10 04:27:25;;;;;;;4.05;3.20;;;;;;;22.75;50.49;99426.08;1744617;80;21530;-69
2022/06/10 04:29:51;;;;;;;3.22;2.92;;;;;;;22.83;50.53;99430.22;1756658;80;21454;-69
2022/06/10 04:32:18;;;;;;;8.13;3.37;;;;;;;22.91;50.21;99428.96;1744700;80;21490;-69
2022/06/10 04:34:44;;;;;;;5.50;3.20;;;;;;;22.94;49.98;99427.33;1749697;80;21829;-58
2022/06/10 04:37:13;;;;;;;6.97;3.35;;;;;;;23.03;50.38;99426.94;1749036;80;21068;-58
2022/06/10 04:39:40;;;;;;;4.65;3.33;;;;;;;23.12;50.13;99430.56;1749483;80;21452;-58
2022/06/10 04:42:29;;;;;;;6.37;3.65;;;;;;;23.16;50.19;99439.98;1757608;80;21571;-58
2022/06/10 04:44:57;;;;;;;9.60;3.30;;;;;;;23.22;50.11;99442.05;1702684;83;21558;-60
2022/06/10 04:47:24;;;;;;;7.45;3.50;;;;;;;23.31;49.74;99449.19;1704479;83;21958;-59
2022/06/10 04:49:50;;;;;;;4.87;3.30;;;;;;;23.31;49.74;99449.19;1705336;83;21526;-59
2022/06/10 04:52:17;;;;;;;6.70;3.55;;;;;;;23.36;49.92;99448.75;1703620;83;21569;-60
2022/06/10 04:54:45;;;;;;;5.72;3.80;;;;;;;23.45;49.60;99453.20;1706775;83;21436;-61
2022/06/10 04:57:12;;;;;;;7.17;4.00;;;;;;;23.49;49.24;99452.40;1698387;82;21881;-58
2022/06/10 04:59:38;;;;;;;7.28;3.72;;;;;;;23.67;49.43;99456.40;1705333;83;21789;-59
2022/06/10 05:02:05;;;;;;;8.55;3.70;;;;;;;23.67;49.43;99456.40;1705367;83;21562;-60
2022/06/10 05:04:32;;;;;;;11.33;3.50;;;;;;;23.75;49.19;99463.17;1699700;83;21577;-59
2022/06/10 05:07:00;;;;;;;7.42;3.83;;;;;;;23.83;49.36;99459.77;1698984;83;21472;-59
2022/06/10 05:09:27;;;;;;;7.00;3.65;;;;;;;23.99;49.39;99459.04;1698906;83;21423;-59
2022/06/10 05:11:54;;;;;;;8.35;4.15;;;;;;;23.99;49.39;99459.04;1702245;83;21502;-59
2022/06/10 05:14:20;;;;;;;4.72;4.20;;;;;;;24.06;49.59;99462.28;1702586;83;21589;-57
2022/06/10 05:16:47;;;;;;;7.08;4.55;;;;;;;24.14;49.48;99460.66;1703090;83;21486;-59
2022/06/10 05:21:03;;;;;;;8.40;4.40;;;;;;;23.79;52.00;99467.29;1780628;78;23121;-60
2022/06/10 05:23:31;;;;;;;5.00;4.55;;;;;;;24.61;49.38;99473.73;1753012;80;21609;-60
2022/06/10 05:25:58;;;;;;;7.50;4.63;;;;;;;24.78;49.17;99477.34;1755318;79;22037;-59
2022/06/10 05:28:26;;;;;;;9.03;5.70;;;;;;;24.87;48.65;99479.06;1772224;79;21105;-59
2022/06/10 05:30:54;;;;;;;6.03;4.95;;;;;;;24.93;48.15;99474.88;1762535;79;21580;-61
2022/06/10 05:33:20;;;;;;;7.37;5.40;;;;;;;24.98;48.29;99480.63;1754781;79;21585;-61
2022/06/10 05:35:47;;;;;;;6.30;5.30;;;;;;;24.98;48.26;99479.28;1755610;80;21409;-59
2022/06/10 05:38:14;;;;;;;8.75;4.90;;;;;;;24.93;48.40;99481.09;1759104;80;21940;-60
2022/06/10 05:40:42;;;;;;;11.75;5.50;;;;;;;24.96;48.43;99478.58;1761716;80;21538;-60
2022/06/10 05:43:09;;;;;;;10.53;4.93;;;;;;;25.01;48.83;99483.80;1762188;79;21529;-61
2022/06/10 05:45:36;;;;;;;7.45;5.33;;;;;;;25.08;49.25;99477.28;1762219;80;21635;-61
2022/06/10 05:48:03;;;;;;;9.53;5.58;;;;;;;25.19;48.58;99482.87;1761582;80;21538;-61
2022/06/10 05:50:37;;;;;;;7.17;5.42;;;;;;;25.25;47.87;99485.77;1756541;80;26710;-61
2022/06/10 05:53:08;;;;;;;10.58;5.70;;;;;;;25.52;48.42;99495.08;1754271;79;21417;-63
2022/06/10 05:55:35;;;;;;;9.28;5.58;;;;;;;25.52;48.42;99495.08;1768653;80;21545;-62
2022/06/10 05:58:03;;;;;;;6.50;5.78;;;;;;;25.60;47.98;99492.42;1755360;80;21439;-63
2022/06/10 06:00:31;;;;;;;;;;;;;;;25.65;47.67;99487.35;1757516;80;20941;-62
2022/06/10 06:02:59;;;;;;;7.17;5.42;;;;;;;25.71;47.42;99489.41;1738035;79;21755;-63
2022/06/10 06:05:26;;;;;;;8.18;5.58;;;;;;;25.76;47.21;99495.10;1760236;79;21556;-63
2022/06/10 06:07:54;;;;;;;7.17;5.22;;;;;;;25.82;47.48;99489.55;1769249;80;20998;-63
2022/06/10 06:10:25;;;;;;;7.60;5.40;;;;;;;25.90;47.31;99486.88;1767489;80;21506;-62
2022/06/10 06:12:53;;;;;;;11.00;5.50;;;;;;;26.00;46.37;99491.61;1764771;79;21475;-62
2022/06/10 06:15:20;;;;;;;8.67;5.27;;;;;;;26.08;46.44;99489.92;1760820;79;22246;-62
2022/06/10 06:17:51;;;;;;;;;;;;;;;26.15;47.04;99490.94;1770402;79;21526;-62
2022/06/10 06:20:20;;;;;;;8.18;5.47;;;;;;;26.23;46.33;99496.30;1763270;80;20481;-61
2022/06/10 06:22:47;;;;;;;7.90;5.62;;;;;;;26.29;46.74;99498.31;1743710;80;21546;-61
2022/06/10 06:25:16;;;;;;;10.17;5.27;;;;;;;26.38;46.96;99499.98;1758290;80;21479;-61
2022/06/10 06:27:44;;;;;;;9.93;4.92;;;;;;;26.55;46.96;99498.61;1750692;80;21861;-61
2022/06/10 06:30:19;;;;;;;5.95;5.10;;;;;;;26.68;47.13;99498.94;1748535;80;21502;-60
2022/06/10 06:32:45;;;;;;;9.48;5.28;;;;;;;26.84;47.23;99509.33;1740844;80;21594;-61
2022/06/10 06:35:12;;;;;;;10.53;5.50;;;;;;;26.93;46.75;99509.64;1751409;80;21578;-62
2022/06/10 06:37:39;;;;;;;11.70;6.60;;;;;;;27.02;46.42;99510.45;1757777;80;21570;-64
2022/06/10 06:40:08;;;;;;;10.80;6.33;;;;;;;27.09;45.23;99510.09;1750252;80;22125;-62
2022/06/10 06:42:36;;;;;;;6.40;5.70;;;;;;;27.16;45.19;99509.20;1744427;80;21538;-62
2022/06/10 06:45:05;;;;;;;7.72;5.58;;;;;;;27.25;45.18;99515.91;1746660;80;21418;-62
2022/06/10 06:47:32;;;;;;;10.72;5.80;;;;;;;27.30;44.84;99517.09;1755152;80;21548;-62
2022/06/10 06:49:59;;;;;;;11.03;6.45;;;;;;;27.34;44.40;99517.06;1753844;80;20943;-61
2022/06/10 06:52:26;;;;;;;9.48;5.70;;;;;;;27.41;44.41;99515.85;1753947;80;21739;-61
2022/06/10 06:54:53;;;;;;;10.45;5.92;;;;;;;27.53;44.15;99513.06;1755469;80;20963;-61
2022/06/10 06:57:21;;;;;;;;;;;;;;;27.68;43.95;99511.78;1756963;80;21558;-61
2022/06/10 06:59:48;;;;;;;;;;;;;;;27.81;43.23;99512.54;1750744;80;20252;-61
2022/06/10 07:02:16;;;;;;;10.25;5.75;;;;;;;27.89;42.35;99511.66;1754860;80;20469;-60
2022/06/10 07:04:42;;;;;;;9.85;6.20;;;;;;;27.92;43.07;99515.38;1744788;80;21902;-60
2022/06/10 07:07:09;;;;;;;5.80;5.07;;;;;;;27.98;43.09;99515.16;1745307;80;21547;-60
2022/06/10 07:09:36;;;;;;;13.00;5.70;;;;;;;28.14;43.35;99514.99;1722077;82;21596;-60
2022/06/10 07:12:04;;;;;;;10.23;5.80;;;;;;;28.27;42.68;99513.02;1750071;80;21703;-61
2022/06/10 07:14:32;;;;;;;9.68;5.62;;;;;;;28.39;42.59;99514.27;1750613;80;21467;-61
2022/06/10 07:16:59;;;;;;;16.57;6.00;;;;;;;28.57;42.87;99513.09;1751446;80;21818;-62
2022/06/10 07:19:26;;;;;;;7.40;6.10;;;;;;;28.73;42.38;99519.69;1748568;80;21467;-61
2022/06/10 07:21:53;;;;;;;10.72;6.35;;;;;;;28.81;41.53;99521.45;1745603;80;21052;-61
2022/06/10 07:24:19;;;;;;;7.87;6.12;;;;;;;28.87;41.06;99517.47;1753137;80;21070;-61
2022/06/10 07:26:46;;;;;;;8.47;5.47;;;;;;;28.98;40.46;99518.88;1749140;80;21510;-61
2022/06/10 07:29:13;;;;;;;9.83;6.20;;;;;;;29.08;39.82;99516.73;1751834;80;21930;-61
2022/06/10 07:31:41;;;;;;;9.18;6.55;;;;;;;29.18;38.98;99513.76;1741877;80;21503;-62
2022/06/10 07:34:09;;;;;;;8.98;6.10;;;;;;;29.20;37.09;99512.22;1750514;80;21437;-62
2022/06/10 07:36:39;;;;;;;7.92;6.20;;;;;;;29.21;37.61;99514.71;1754024;80;21490;-60
2022/06/10 07:39:05;;;;;;;12.78;6.37;;;;;;;29.28;37.76;99508.03;1752861;80;21530;-61
2022/06/10 07:44:20;;;;;;;13.20;6.25;;;;;;;29.35;36.84;99514.87;1751708;80;21035;-62
2022/06/10 07:46:52;;;;;;;7.65;6.10;;;;;;;29.37;36.86;99512.31;1751560;80;21511;-61
2022/06/10 07:49:20;;;;;;;8.45;6.30;;;;;;;29.50;36.53;99515.16;1749884;80;21061;-61
2022/06/10 07:51:47;;;;;;;12.28;6.83;;;;;;;29.62;35.21;99516.02;1747997;80;21509;-60
2022/06/10 07:54:14;;;;;;;9.73;6.25;;;;;;;29.68;34.16;99521.48;1752278;80;21889;-61
2022/06/10 07:56:42;;;;;;;7.12;6.00;;;;;;;29.71;34.08;99518.92;1760095;80;21392;-61
2022/06/10 07:59:09;;;;;;;7.53;6.67;;;;;;;29.71;34.16;99521.63;1742174;80;20975;-61
2022/06/10 08:01:37;;;;;;;13.68;6.80;;;;;;;29.79;34.44;99516.63;1752629;80;21487;-60
2022/06/10 08:04:06;;;;;;;10.55;7.50;;;;;;;29.90;34.48;99525.60;1756721;80;21550;-61
2022/06/10 08:06:33;;;;;;;10.32;7.50;;;;;;;29.99;34.19;99522.22;1752029;80;22139;-61
2022/06/10 08:08:59;;;;;;;12.65;8.50;;;;;;;30.11;34.06;99519.84;1762179;80;21420;-61
2022/06/10 08:11:27;;;;;;;13.73;9.93;;;;;;;30.14;33.25;99513.52;1747555;80;21544;-62
2022/06/10 08:13:54;;;;;;;12.98;9.08;;;;;;;30.22;33.09;99522.85;1748213;80;21918;-61
2022/06/10 08:16:20;;;;;;;16.30;10.18;;;;;;;30.25;33.06;99517.55;1746855;80;21568;-62
2022/06/10 08:18:47;;;;;;;20.12;10.78;;;;;;;30.26;33.73;99515.16;1751187;80;21999;-62
2022/06/10 08:24:00;;;;;;;14.65;11.18;;;;;;;30.49;33.11;99511.40;1744668;80;21503;-62
2022/06/10 08:26:28;;;;;;;17.95;11.95;;;;;;;30.58;31.76;99506.14;1754043;80;21557;-63
2022/06/10 08:28:55;;;;;;;13.80;11.05;;;;;;;30.68;31.45;99516.62;1752438;80;20947;-63
2022/06/10 08:31:21;;;;;;;19.50;12.20;;;;;;;30.77;30.57;99512.72;1716321;80;21807;-62
2022/06/10 08:33:48;;;;;;;14.30;10.23;;;;;;;30.85;29.70;99513.90;1746746;80;21511;-62
2022/06/10 08:36:15;;;;;;;14.30;10.63;;;;;;;30.88;30.52;99512.16;1751432;80;21575;-63
2022/06/10 08:38:42;;;;;;;14.83;11.23;;;;;;;30.87;29.85;99518.61;1753298;80;20998;-62
2022/06/10 08:41:48;;;;;;;16.05;11.05;;;;;;;30.82;30.41;99516.51;1747695;80;21448;-62
2022/06/10 08:44:44;;;;;;;17.15;10.70;;;;;;;30.77;29.99;99516.79;1754125;80;21839;-61
2022/06/10 08:47:46;;;;;;;15.58;10.90;;;;;;;30.71;30.20;99512.17;1753922;80;21415;-62
2022/06/10 08:50:34;;;;;;;12.95;9.98;;;;;;;30.66;30.15;99507.33;1745382;80;21556;-62
2022/06/10 08:53:04;;;;;;;;;;;;;;;30.70;30.21;99507.77;1755689;80;21587;-61
2022/06/10 08:56:00;;;;;;;15.93;9.55;;;;;;;30.70;30.12;99512.66;1681411;80;20431;-61
2022/06/10 08:58:32;;;;;;;14.95;9.38;;;;;;;30.60;30.54;99504.06;1732714;80;21990;-61
2022/06/10 09:01:07;;;;;;;14.28;8.43;;;;;;;30.52;30.63;99507.77;1746379;80;21040;-62
2022/06/10 09:03:46;;;;;;;12.85;9.38;;;;;;;30.58;30.00;99502.07;1760707;80;21538;-62
2022/06/10 09:06:24;;;;;;;10.60;8.23;;;;;;;30.75;30.89;99506.66;1751067;80;21049;-63
2022/06/10 09:08:51;;;;;;;10.20;7.55;;;;;;;30.96;29.96;99512.00;1740320;80;21492;-59
2022/06/10 09:11:38;;;;;;;11.03;6.70;;;;;;;31.21;29.50;99511.48;1749296;80;21696;-60
2022/06/10 09:14:20;;;;;;;;;;;;;;;31.45;29.45;99504.67;1761633;80;21573;-61
2022/06/10 09:16:55;;;;;;;10.98;7.53;;;;;;;31.65;29.58;99509.33;1757138;80;20184;-60
2022/06/10 09:19:42;;;;;;;11.43;8.05;;;;;;;31.81;29.15;99512.49;1757727;80;21501;-61
2022/06/10 09:22:50;;;;;;;8.83;7.60;;;;;;;32.04;28.48;99508.56;1746785;80;21574;-61
2022/06/10 09:25:34;;;;;;;9.18;8.28;;;;;;;32.20;28.53;99500.00;1754995;80;21511;-62
2022/06/10 09:28:02;;;;;;;9.63;8.50;;;;;;;32.43;28.38;99511.49;1750276;80;21443;-62
2022/06/10 09:30:40;;;;;;;9.85;8.00;;;;;;;32.49;27.93;99507.38;1748564;80;21506;-62
2022/06/10 09:33:25;;;;;;;11.18;8.48;;;;;;;32.47;27.72;99514.09;1754717;80;21041;-62
2022/06/10 09:36:31;;;;;;;12.47;8.70;;;;;;;32.36;27.77;99512.84;1744338;80;21462;-62
2022/06/10 09:39:06;;;;;;;10.28;8.60;;;;;;;32.36;27.65;99515.56;1754699;80;21447;-63
2022/06/10 09:41:50;;;;;;;11.05;8.60;;;;;;;32.31;28.40;99508.59;1737837;80;21434;-62
2022/06/10 09:44:38;;;;;;;11.28;8.18;;;;;;;32.30;28.32;99509.62;1751279;80;21531;-61
2022/06/10 09:47:22;;;;;;;9.60;8.30;;;;;;;32.19;28.49;99507.86;1742339;80;22019;-62
2022/06/10 09:50:17;;;;;;;10.55;8.05;;;;;;;32.14;28.45;99511.72;1754169;80;21483;-61
2022/06/10 09:52:58;;;;;;;10.88;7.70;;;;;;;32.14;28.72;99515.80;1737766;80;22048;-61
2022/06/10 09:55:52;;;;;;;11.45;9.10;;;;;;;32.10;28.67;99517.27;1745877;80;20947;-63
2022/06/10 09:58:38;;;;;;;12.73;8.60;;;;;;;32.08;28.75;99515.29;1751159;80;20947;-62
2022/06/10 10:01:46;;;;;;;10.80;7.80;;;;;;;32.04;28.00;99515.36;1753337;80;21479;-61
2022/06/10 10:04:21;;;;;;;13.58;7.28;;;;;;;31.97;28.73;99520.78;1635348;86;21629;-63
2022/06/10 10:07:26;;;;;;;9.28;7.25;;;;;;;31.84;28.74;99520.78;1633557;85;21567;-62
2022/06/10 10:10:16;;;;;;;10.23;7.08;;;;;;;31.76;28.87;99522.31;1587067;89;21014;-62
2022/06/10 10:12:56;;;;;;;8.65;6.67;;;;;;;31.67;28.92;99523.58;1620619;86;21523;-63
2022/06/10 10:15:50;;;;;;;10.53;7.17;;;;;;;31.76;29.85;99519.59;1634835;86;21568;-62
2022/06/10 10:18:35;;;;;;;8.58;7.22;;;;;;;31.89;29.95;99518.78;1635534;85;21423;-62
2022/06/10 10:21:21;;;;;;;10.68;7.42;;;;;;;31.96;30.10;99516.91;1633852;86;21888;-61
2022/06/10 10:23:52;;;;;;;;;;;;;;;32.05;29.42;99520.30;1637529;86;21436;-61
2022/06/10 10:26:37;;;;;;;7.83;6.90;;;;;;;32.18;29.76;99511.61;1621521;86;20437;-61
2022/06/10 10:29:12;;;;;;;8.53;7.70;;;;;;;32.27;28.94;99517.69;1632693;86;21436;-62
2022/06/10 10:31:47;;;;;;;8.58;7.30;;;;;;;32.37;28.18;99526.77;1634434;86;21743;-63
2022/06/10 10:34:26;;;;;;;10.20;7.08;;;;;;;32.39;27.61;99524.14;1623549;85;21535;-62
2022/06/10 10:36:57;;;;;;;11.78;8.08;;;;;;;32.41;27.90;99518.50;1630981;86;20959;-63
2022/06/10 10:39:38;;;;;;;9.60;8.63;;;;;;;32.45;27.54;99519.74;1634315;87;21549;-62
2022/06/10 10:42:23;;;;;;;10.78;7.28;;;;;;;32.43;27.68;99520.48;1636238;86;21032;-61
2022/06/10 10:45:12;;;;;;;8.90;8.00;;;;;;;32.37;27.36;99514.53;1614178;87;21617;-63
2022/06/10 10:47:39;;;;;;;10.45;8.23;;;;;;;32.31;27.58;99510.77;1630107;86;21649;-62
2022/06/10 10:50:20;;;;;;;11.55;9.60;;;;;;;32.36;28.06;99517.78;1577840;86;21570;-60
2022/06/10 10:52:48;;;;;;;9.53;8.63;;;;;;;32.51;27.97;99518.92;1628448;85;21481;-61
2022/06/10 10:55:29;;;;;;;10.10;8.90;;;;;;;32.58;27.29;99513.48;1633310;86;21561;-61
2022/06/10 10:58:21;;;;;;;12.58;9.23;;;;;;;32.66;26.86;99519.22;1631903;86;21436;-61
2022/06/10 11:01:08;;;;;;;9.93;8.65;;;;;;;32.74;25.69;99507.59;1634835;87;21487;-59
2022/06/10 11:03:40;;;;;;;12.60;8.85;;;;;;;32.80;26.19;99503.71;1658285;85;21042;-62
2022/06/10 11:06:09;;;;;;;11.65;8.85;;;;;;;32.83;25.87;99500.55;1664639;84;21467;-61
2022/06/10 11:08:38;;;;;;;14.10;8.83;;;;;;;32.84;25.55;99497.61;1668221;83;21443;-60
2022/06/10 11:11:22;;;;;;;13.13;9.70;;;;;;;32.81;26.01;99499.39;1692494;83;21449;-60
2022/06/10 11:13:54;;;;;;;11.65;9.45;;;;;;;32.84;25.47;99504.95;1700822;83;21869;-60
2022/06/10 11:16:36;;;;;;;13.53;10.38;;;;;;;32.89;24.78;99496.95;1694659;83;21030;-60
2022/06/10 11:19:20;;;;;;;14.28;10.05;;;;;;;32.93;24.79;99495.50;1699037;82;21390;-60
2022/06/10 11:22:09;;;;;;;12.47;9.88;;;;;;;32.86;24.00;99496.87;1693039;83;21505;-60
2022/06/10 11:24:50;;;;;;;15.28;10.58;;;;;;;32.84;24.58;99494.06;1699999;83;21441;-60
2022/06/10 11:27:26;;;;;;;12.82;10.82;;;;;;;32.90;24.98;99500.00;1695506;83;21800;-60
2022/06/10 11:30:14;;;;;;;13.68;10.58;;;;;;;32.99;26.29;99494.62;1700583;83;21398;-61
2022/06/10 11:32:58;;;;;;;12.25;10.68;;;;;;;33.10;25.74;99488.50;1667712;85;21526;-60
2022/06/10 11:35:36;;;;;;;13.38;10.30;;;;;;;33.21;25.37;99488.39;1701078;83;21422;-60
2022/06/10 11:38:17;;;;;;;14.45;10.35;;;;;;;33.35;25.30;99494.59;1699867;83;21654;-60
2022/06/10 11:40:52;;;;;;;13.65;10.20;;;;;;;33.43;24.87;99486.16;1666697;85;21946;-60
2022/06/10 11:43:41;;;;;;;15.48;10.58;;;;;;;33.47;25.12;99484.66;1702191;83;21020;-60
2022/06/10 11:46:34;;;;;;;15.53;11.78;;;;;;;33.48;24.82;99482.25;1701945;83;21401;-60
2022/06/10 11:49:37;;;;;;;17.82;11.85;;;;;;;33.50;24.91;99486.95;1700939;83;21465;-60
2022/06/10 11:52:09;;;;;;;15.28;11.60;;;;;;;33.59;24.68;99473.05;1704086;83;21461;-61
2022/06/10 11:55:16;;;;;;;13.43;11.73;;;;;;;33.67;24.51;99481.84;1700836;83;21916;-61
2022/06/10 12:00:53;;;;;;;17.48;12.63;;;;;;;33.68;23.31;99471.77;1698607;83;21501;-60
2022/06/10 12:04:02;;;;;;;18.17;13.03;;;;;;;33.70;24.23;99479.19;1687841;83;21179;-61
2022/06/10 12:06:33;;;;;;;16.05;12.70;;;;;;;33.79;24.10;99474.31;1666390;85;21504;-60
2022/06/10 12:09:10;;;;;;;17.62;13.43;;;;;;;33.85;23.67;99472.05;1665693;85;22138;-60
2022/06/10 12:11:50;;;;;;;18.73;13.53;;;;;;;33.88;23.17;99467.53;1660148;85;21442;-60
2022/06/10 12:14:37;;;;;;;14.58;12.93;;;;;;;33.89;23.34;99463.77;1666470;85;21444;-60
2022/06/10 12:17:19;;;;;;;16.97;13.38;;;;;;;33.95;23.50;99456.05;1666148;84;21444;-60
2022/06/10 12:19:59;;;;;;;16.23;12.53;;;;;;;34.02;23.31;99455.47;1643921;84;21461;-60
2022/06/10 12:22:26;;;;;;;21.50;15.93;;;;;;;34.07;22.83;99460.23;1650958;84;21888;-60
2022/06/10 12:24:54;;;;;;;17.10;14.58;;;;;;;34.04;22.68;99453.34;1664091;85;21558;-60
2022/06/10 12:27:33;;;;;;;18.05;13.38;;;;;;;34.09;23.05;99454.85;1666078;84;21744;-61